createdAt,value
2023-04-10T00:00:21.766Z,1.84
2023-04-10T00:01:21.746Z,1.81
2023-04-10T00:02:21.846Z,1.77
2023-04-10T00:03:21.919Z,1.74
2023-04-10T00:04:21.812Z,1.70
2023-04-10T00:05:21.705Z,1.63
2023-04-10T00:06:21.686Z,1.60
2023-04-10T00:07:21.695Z,1.59
2023-04-10T00:08:21.727Z,1.56
2023-04-10T00:09:21.645Z,1.55
2023-04-10T00:10:21.623Z,1.52
2023-04-10T00:11:21.641Z,1.53
2023-04-10T00:12:21.628Z,1.55
2023-04-10T00:13:21.679Z,1.56
2023-04-10T00:14:21.616Z,1.55
2023-04-10T00:15:21.599Z,1.55
2023-04-10T00:16:21.591Z,1.55
2023-04-10T00:17:21.586Z,1.55
2023-04-10T00:18:21.596Z,1.63
2023-04-10T00:19:21.547Z,1.71
2023-04-10T00:20:21.522Z,1.74
2023-04-10T00:21:21.561Z,1.71
2023-04-10T00:22:21.500Z,1.67
2023-04-10T00:23:21.537Z,1.56
2023-04-10T00:24:21.486Z,1.56
2023-04-10T00:25:21.471Z,1.67
2023-04-10T00:26:21.469Z,1.71
2023-04-10T00:27:21.447Z,1.68
2023-04-10T00:28:21.479Z,1.68
2023-04-10T00:29:21.420Z,1.71
2023-04-10T00:30:21.429Z,1.66
2023-04-10T00:31:21.440Z,1.59
2023-04-10T00:32:21.435Z,1.58
2023-04-10T00:33:21.422Z,1.50
2023-04-10T00:34:21.372Z,1.45
2023-04-10T00:35:21.349Z,1.40
2023-04-10T00:36:21.363Z,1.37
2023-04-10T00:37:21.314Z,1.31
2023-04-10T00:38:21.339Z,1.23
2023-04-10T00:39:21.286Z,1.23
2023-04-10T00:40:21.294Z,1.31
2023-04-10T00:41:21.280Z,1.34
2023-04-10T00:42:21.281Z,1.38
2023-04-10T00:43:21.300Z,1.32
2023-04-10T00:44:21.232Z,1.28
2023-04-10T00:45:21.247Z,1.30
2023-04-10T00:46:21.241Z,1.31
2023-04-10T00:47:21.226Z,1.28
2023-04-10T00:48:21.255Z,1.26
2023-04-10T00:49:21.207Z,1.22
2023-04-10T00:50:21.201Z,1.20
2023-04-10T00:51:21.167Z,1.14
2023-04-10T00:52:21.156Z,1.08
2023-04-10T00:53:21.196Z,0.99
2023-04-10T00:54:21.135Z,0.98
2023-04-10T00:55:21.126Z,1.04
2023-04-10T00:56:21.107Z,1.10
2023-04-10T00:57:21.097Z,1.22
2023-04-10T00:58:21.126Z,1.26
2023-04-10T00:59:21.080Z,1.31
2023-04-10T01:00:21.097Z,1.32
2023-04-10T01:01:21.086Z,1.31
2023-04-10T01:02:21.246Z,1.30
2023-04-10T01:03:21.217Z,1.20
2023-04-10T01:04:21.077Z,1.14
2023-04-10T01:05:21.007Z,1.13
2023-04-10T01:06:20.974Z,1.06
2023-04-10T01:07:20.957Z,1.05
2023-04-10T01:08:21.083Z,1.01
2023-04-10T01:09:20.952Z,0.96
2023-04-10T01:10:20.964Z,0.92
2023-04-10T01:11:20.929Z,0.88
2023-04-10T01:12:20.920Z,0.94
2023-04-10T01:13:20.949Z,0.95
2023-04-10T01:14:20.899Z,1.01
2023-04-10T01:15:20.883Z,0.99
2023-04-10T01:16:20.919Z,1.01
2023-04-10T01:17:20.863Z,0.99
2023-04-10T01:18:20.879Z,1.01
2023-04-10T01:19:20.839Z,0.98
2023-04-10T01:20:20.812Z,0.94
2023-04-10T01:21:20.808Z,0.88
2023-04-10T01:22:20.793Z,0.86
2023-04-10T01:23:20.828Z,0.77
2023-04-10T01:24:20.773Z,0.70
2023-04-10T01:25:20.765Z,0.68
2023-04-10T01:26:20.749Z,-40.00
2023-04-10T01:27:20.751Z,0.62
2023-04-10T01:28:20.802Z,0.68
2023-04-10T01:29:20.727Z,0.78
2023-04-10T01:30:20.708Z,0.78
2023-04-10T01:31:20.832Z,0.87
2023-04-10T01:32:20.736Z,0.86
2023-04-10T01:33:20.719Z,0.95
2023-04-10T01:34:20.687Z,1.01
2023-04-10T01:35:20.655Z,1.08
2023-04-10T01:36:20.623Z,1.14
2023-04-10T01:37:20.606Z,1.20
2023-04-10T01:38:20.651Z,1.20
2023-04-10T01:39:20.594Z,1.26
2023-04-10T01:40:20.594Z,1.32
2023-04-10T01:41:20.577Z,1.35
2023-04-10T01:42:20.565Z,1.38
2023-04-10T01:43:20.615Z,1.41
2023-04-10T01:44:20.549Z,1.45
2023-04-10T01:45:20.563Z,1.56
2023-04-10T01:46:20.539Z,1.59
2023-04-10T01:47:20.511Z,1.55
2023-04-10T01:48:20.540Z,1.68
2023-04-10T01:49:20.497Z,1.73
2023-04-10T01:50:20.491Z,1.68
2023-04-10T01:51:20.457Z,1.58
2023-04-10T01:52:20.451Z,1.55
2023-04-10T01:53:20.481Z,1.45
2023-04-10T01:54:20.436Z,1.48
2023-04-10T01:55:20.424Z,1.49
2023-04-10T01:56:20.402Z,1.44
2023-04-10T01:57:20.433Z,1.40
2023-04-10T01:58:20.420Z,1.35
2023-04-10T01:59:20.363Z,1.40
2023-04-10T02:00:20.399Z,1.35
2023-04-10T02:01:29.229Z,1.32
2023-04-10T02:02:21.434Z,1.22
2023-04-10T02:03:20.637Z,1.24
2023-04-10T02:04:20.401Z,1.32
2023-04-10T02:05:20.299Z,1.31
2023-04-10T02:06:20.312Z,1.30
2023-04-10T02:07:20.327Z,1.30
2023-04-10T02:08:20.352Z,1.26
2023-04-10T02:09:20.254Z,1.30
2023-04-10T02:10:20.268Z,1.32
2023-04-10T02:11:20.296Z,1.38
2023-04-10T02:12:20.274Z,1.37
2023-04-10T02:13:20.282Z,1.35
2023-04-10T02:14:20.206Z,1.35
2023-04-10T02:15:20.196Z,1.35
2023-04-10T02:16:20.230Z,1.38
2023-04-10T02:17:20.198Z,1.44
2023-04-10T02:18:20.236Z,1.49
2023-04-10T02:19:20.183Z,1.55
2023-04-10T02:20:20.156Z,1.56
2023-04-10T02:21:20.158Z,1.63
2023-04-10T02:22:20.137Z,1.73
2023-04-10T02:23:20.132Z,1.76
2023-04-10T02:24:20.090Z,1.87
2023-04-10T02:25:20.074Z,1.95
2023-04-10T02:26:20.115Z,2.00
2023-04-10T02:27:20.040Z,2.08
2023-04-10T02:28:20.098Z,2.13
2023-04-10T02:29:20.046Z,2.15
2023-04-10T02:30:20.100Z,2.20
2023-04-10T02:31:20.066Z,2.25
2023-04-10T02:32:20.115Z,2.31
2023-04-10T02:33:20.040Z,2.33
2023-04-10T02:34:19.982Z,2.38
2023-04-10T02:35:19.965Z,2.39
2023-04-10T02:36:19.975Z,2.46
2023-04-10T02:37:19.946Z,2.50
2023-04-10T02:38:19.984Z,2.51
2023-04-10T02:39:19.931Z,2.57
2023-04-10T02:40:19.918Z,2.57
2023-04-10T02:41:19.900Z,2.62
2023-04-10T02:42:19.885Z,2.68
2023-04-10T02:43:19.874Z,2.69
2023-04-10T02:44:19.907Z,2.71
2023-04-10T02:45:19.850Z,2.82
2023-04-10T02:46:19.865Z,2.87
2023-04-10T02:47:19.871Z,2.90
2023-04-10T02:48:19.815Z,2.93
2023-04-10T02:49:19.872Z,2.97
2023-04-10T02:50:19.785Z,2.98
2023-04-10T02:51:19.774Z,3.00
2023-04-10T02:52:19.774Z,3.00
2023-04-10T02:53:19.758Z,3.03
2023-04-10T02:54:19.784Z,3.03
2023-04-10T02:55:19.733Z,3.03
2023-04-10T02:56:19.736Z,3.03
2023-04-10T02:57:19.708Z,3.04
2023-04-10T02:58:19.708Z,3.08
2023-04-10T02:59:19.723Z,3.10
2023-04-10T03:00:19.686Z,3.11
2023-04-10T03:01:19.818Z,3.14
2023-04-10T03:02:19.701Z,3.13
2023-04-10T03:03:19.723Z,3.14
2023-04-10T03:04:19.947Z,3.18
2023-04-10T03:05:19.607Z,3.21
2023-04-10T03:06:19.624Z,3.26
2023-04-10T03:07:19.592Z,3.31
2023-04-10T03:08:19.581Z,3.36
2023-04-10T03:09:19.633Z,3.44
2023-04-10T03:10:19.573Z,3.45
2023-04-10T03:11:19.544Z,3.48
2023-04-10T03:12:19.531Z,3.51
2023-04-10T03:13:19.545Z,3.56
2023-04-10T03:14:19.557Z,3.58
2023-04-10T03:15:19.492Z,3.60
2023-04-10T03:16:19.592Z,3.60
2023-04-10T03:17:19.469Z,3.63
2023-04-10T03:18:19.496Z,3.66
2023-04-10T03:19:19.492Z,3.66
2023-04-10T03:20:19.443Z,3.69
2023-04-10T03:21:19.439Z,3.70
2023-04-10T03:22:19.432Z,3.73
2023-04-10T03:23:19.494Z,3.74
2023-04-10T03:24:19.449Z,3.76
2023-04-10T03:25:19.393Z,3.76
2023-04-10T03:26:19.378Z,3.77
2023-04-10T03:27:19.362Z,3.80
2023-04-10T03:28:19.349Z,3.80
2023-04-10T03:29:19.383Z,3.77
2023-04-10T03:30:19.382Z,3.78
2023-04-10T03:31:19.342Z,3.78
2023-04-10T03:32:19.316Z,3.78
2023-04-10T03:33:19.289Z,3.83
2023-04-10T03:34:19.317Z,3.83
2023-04-10T03:35:19.263Z,3.86
2023-04-10T03:36:19.326Z,3.88
2023-04-10T03:37:19.246Z,3.92
2023-04-10T03:38:19.253Z,3.94
2023-04-10T03:39:19.295Z,3.95
2023-04-10T03:40:19.222Z,3.95
2023-04-10T03:41:19.197Z,3.96
2023-04-10T03:42:19.203Z,3.96
2023-04-10T03:43:19.180Z,3.98
2023-04-10T03:44:19.211Z,3.96
2023-04-10T03:45:19.163Z,3.99
2023-04-10T03:46:19.194Z,4.01
2023-04-10T03:47:19.141Z,4.04
2023-04-10T03:48:19.125Z,4.06
2023-04-10T03:49:19.144Z,4.06
2023-04-10T03:50:19.100Z,4.12
2023-04-10T03:51:19.084Z,4.13
2023-04-10T03:52:19.108Z,4.16
2023-04-10T03:53:19.082Z,4.17
2023-04-10T03:54:19.114Z,4.20
2023-04-10T03:55:19.170Z,4.24
2023-04-10T03:56:19.056Z,4.24
2023-04-10T03:57:19.019Z,4.28
2023-04-10T03:58:19.005Z,4.30
2023-04-10T03:59:19.040Z,4.31
2023-04-10T04:00:19.018Z,4.31
2023-04-10T04:01:18.967Z,4.32
2023-04-10T04:02:19.128Z,4.35
2023-04-10T04:03:19.150Z,4.35
2023-04-10T04:04:19.052Z,4.38
2023-04-10T04:05:18.950Z,4.37
2023-04-10T04:06:18.922Z,4.35
2023-04-10T04:07:18.914Z,4.37
2023-04-10T04:08:18.897Z,4.40
2023-04-10T04:09:18.918Z,4.38
2023-04-10T04:10:18.872Z,4.44
2023-04-10T04:11:18.859Z,4.44
2023-04-10T04:12:18.849Z,4.50
2023-04-10T04:13:18.850Z,4.53
2023-04-10T04:14:18.866Z,4.55
2023-04-10T04:15:18.809Z,4.55
2023-04-10T04:16:18.837Z,4.53
2023-04-10T04:17:18.779Z,4.58
2023-04-10T04:18:18.781Z,4.62
2023-04-10T04:19:18.805Z,4.66
2023-04-10T04:20:18.749Z,4.67
2023-04-10T04:21:18.746Z,4.68
2023-04-10T04:22:18.738Z,4.68
2023-04-10T04:23:18.705Z,4.75
2023-04-10T04:24:18.764Z,4.77
2023-04-10T04:25:18.708Z,4.74
2023-04-10T04:26:18.694Z,4.75
2023-04-10T04:27:18.665Z,4.73
2023-04-10T04:28:18.664Z,4.73
2023-04-10T04:29:18.688Z,4.75
2023-04-10T04:30:18.780Z,4.74
2023-04-10T04:31:18.775Z,4.75
2023-04-10T04:32:18.918Z,4.71
2023-04-10T04:33:18.682Z,4.75
2023-04-10T04:34:18.742Z,4.75
2023-04-10T04:35:18.682Z,4.71
2023-04-10T04:36:18.618Z,4.75
2023-04-10T04:37:18.583Z,4.74
2023-04-10T04:38:18.548Z,4.70
2023-04-10T04:39:18.603Z,4.70
2023-04-10T04:40:18.534Z,4.67
2023-04-10T04:41:20.482Z,4.68
2023-04-10T04:42:18.523Z,4.63
2023-04-10T04:43:18.492Z,4.58
2023-04-10T04:44:18.559Z,4.52
2023-04-10T04:45:18.465Z,4.49
2023-04-10T04:46:18.487Z,4.45
2023-04-10T04:47:18.455Z,4.48
2023-04-10T04:48:18.466Z,4.45
2023-04-10T04:49:18.463Z,4.49
2023-04-10T04:50:18.404Z,4.48
2023-04-10T04:51:18.468Z,4.53
2023-04-10T04:52:18.398Z,4.58
2023-04-10T04:53:18.367Z,4.62
2023-04-10T04:54:18.426Z,4.66
2023-04-10T04:55:18.462Z,4.71
2023-04-10T04:56:18.382Z,4.74
2023-04-10T04:57:18.334Z,4.74
2023-04-10T04:58:18.325Z,4.73
2023-04-10T04:59:18.361Z,4.73
2023-04-10T05:00:18.290Z,4.73
2023-04-10T05:01:18.330Z,4.73
2023-04-10T05:02:18.294Z,4.73
2023-04-10T05:03:18.446Z,4.73
2023-04-10T05:04:18.475Z,4.75
2023-04-10T05:05:18.233Z,4.80
2023-04-10T05:06:18.222Z,4.82
2023-04-10T05:07:18.235Z,4.84
2023-04-10T05:08:18.206Z,4.89
2023-04-10T05:09:18.275Z,4.93
2023-04-10T05:10:18.244Z,4.92
2023-04-10T05:11:18.167Z,4.84
2023-04-10T05:12:18.150Z,4.74
2023-04-10T05:13:18.140Z,4.78
2023-04-10T05:14:18.199Z,4.84
2023-04-10T05:15:18.156Z,4.82
2023-04-10T05:16:18.140Z,4.86
2023-04-10T05:17:18.114Z,4.89
2023-04-10T05:18:18.241Z,4.87
2023-04-10T05:19:18.139Z,4.89
2023-04-10T05:20:18.066Z,4.97
2023-04-10T05:21:18.056Z,5.04
2023-04-10T05:22:18.707Z,5.04
2023-04-10T05:23:18.025Z,5.10
2023-04-10T05:24:18.076Z,5.25
2023-04-10T05:25:18.009Z,5.39
2023-04-10T05:26:18.024Z,5.43
2023-04-10T05:27:17.994Z,5.57
2023-04-10T05:28:17.991Z,5.84
2023-04-10T05:29:18.009Z,5.97
2023-04-10T05:30:17.977Z,6.14
2023-04-10T05:31:17.946Z,6.39
2023-04-10T05:32:17.933Z,6.67
2023-04-10T05:33:17.912Z,6.95
2023-04-10T05:34:17.946Z,7.17
2023-04-10T05:35:17.882Z,7.45
2023-04-10T05:36:17.958Z,7.73
2023-04-10T05:37:17.902Z,7.88
2023-04-10T05:38:17.873Z,7.75
2023-04-10T05:39:17.900Z,7.77
2023-04-10T05:40:17.861Z,7.72
2023-04-10T05:41:17.825Z,7.93
2023-04-10T05:42:17.874Z,8.26
2023-04-10T05:43:17.802Z,8.42
2023-04-10T05:44:17.797Z,8.37
2023-04-10T05:45:17.825Z,8.38
2023-04-10T05:46:17.882Z,8.51
2023-04-10T05:47:17.803Z,8.66
2023-04-10T05:48:17.867Z,8.70
2023-04-10T05:49:17.730Z,8.92
2023-04-10T05:50:17.770Z,9.08
2023-04-10T05:51:17.737Z,9.10
2023-04-10T05:52:17.763Z,9.31
2023-04-10T05:53:17.689Z,9.48
2023-04-10T05:54:17.695Z,9.28
2023-04-10T05:55:17.708Z,9.51
2023-04-10T05:56:17.665Z,9.74
2023-04-10T05:57:17.664Z,9.91
2023-04-10T05:58:17.634Z,10.16
2023-04-10T05:59:17.607Z,10.44
2023-04-10T06:00:17.634Z,10.69
2023-04-10T06:01:17.602Z,10.97
2023-04-10T06:02:17.748Z,11.26
2023-04-10T06:03:17.658Z,11.43
2023-04-10T06:04:17.747Z,11.44
2023-04-10T06:05:17.760Z,11.59
2023-04-10T06:06:17.547Z,11.70
2023-04-10T06:07:17.604Z,11.83
2023-04-10T06:08:17.517Z,11.83
2023-04-10T06:09:17.523Z,11.84
2023-04-10T06:10:17.601Z,11.36
2023-04-10T06:11:17.483Z,11.47
2023-04-10T06:12:17.486Z,11.41
2023-04-10T06:13:17.467Z,11.57
2023-04-10T06:14:17.445Z,11.70
2023-04-10T06:15:17.530Z,11.81
2023-04-10T06:16:17.450Z,11.88
2023-04-10T06:17:17.411Z,12.03
2023-04-10T06:18:17.411Z,12.25
2023-04-10T06:19:17.380Z,12.27
2023-04-10T06:20:17.419Z,12.35
2023-04-10T06:21:17.349Z,12.45
2023-04-10T06:22:17.359Z,12.32
2023-04-10T06:23:17.352Z,12.60
2023-04-10T06:24:17.326Z,12.87
2023-04-10T06:25:17.367Z,12.78
2023-04-10T06:26:17.302Z,12.78
2023-04-10T06:27:17.288Z,13.04
2023-04-10T06:28:17.271Z,13.47
2023-04-10T06:29:17.260Z,13.20
2023-04-10T06:30:17.333Z,12.58
2023-04-10T06:31:17.281Z,12.28
2023-04-10T06:32:18.028Z,12.35
2023-04-10T06:33:17.323Z,12.62
2023-04-10T06:34:17.210Z,12.25
2023-04-10T06:35:17.290Z,11.59
2023-04-10T06:36:17.213Z,11.29
2023-04-10T06:37:17.174Z,11.19
2023-04-10T06:38:17.182Z,11.04
2023-04-10T06:39:17.150Z,11.12
2023-04-10T06:40:17.224Z,11.29
2023-04-10T06:41:17.168Z,11.35
2023-04-10T06:42:17.112Z,11.22
2023-04-10T06:43:17.138Z,11.11
2023-04-10T06:44:17.109Z,10.79
2023-04-10T06:45:17.122Z,10.51
2023-04-10T06:46:17.104Z,10.59
2023-04-10T06:47:17.086Z,10.67
2023-04-10T06:48:17.046Z,10.54
2023-04-10T06:49:17.058Z,10.40
2023-04-10T06:50:17.088Z,10.41
2023-04-10T06:51:17.020Z,10.35
2023-04-10T06:52:17.004Z,10.38
2023-04-10T06:53:16.989Z,10.48
2023-04-10T06:54:16.989Z,9.99
2023-04-10T06:55:17.134Z,9.97
2023-04-10T06:56:16.995Z,9.79
2023-04-10T06:57:16.944Z,9.54
2023-04-10T06:58:16.929Z,9.58
2023-04-10T06:59:16.921Z,9.68
2023-04-10T07:00:16.966Z,9.66
2023-04-10T07:01:16.985Z,9.87
2023-04-10T07:02:16.907Z,10.15
2023-04-10T07:03:16.913Z,10.23
2023-04-10T07:04:16.906Z,10.16
2023-04-10T07:05:17.092Z,10.25
2023-04-10T07:06:16.942Z,10.26
2023-04-10T07:07:16.978Z,10.28
2023-04-10T07:08:16.833Z,10.31
2023-04-10T07:09:16.835Z,10.16
2023-04-10T07:10:16.854Z,10.28
2023-04-10T07:11:16.820Z,10.31
2023-04-10T07:12:16.761Z,10.35
2023-04-10T07:13:16.784Z,10.41
2023-04-10T07:14:16.782Z,10.26
2023-04-10T07:15:16.824Z,10.07
2023-04-10T07:16:16.826Z,10.20
2023-04-10T07:17:16.716Z,10.20
2023-04-10T07:18:16.703Z,10.30
2023-04-10T07:19:16.696Z,10.40
2023-04-10T07:20:16.721Z,10.37
2023-04-10T07:21:16.677Z,10.30
2023-04-10T07:22:16.661Z,10.33
2023-04-10T07:23:16.657Z,10.40
2023-04-10T07:24:16.660Z,10.34
2023-04-10T07:25:16.670Z,10.22
2023-04-10T07:26:16.599Z,10.12
2023-04-10T07:27:16.599Z,10.17
2023-04-10T07:28:16.595Z,10.02
2023-04-10T07:29:16.578Z,10.16
2023-04-10T07:30:16.637Z,10.13
2023-04-10T07:31:16.564Z,10.04
2023-04-10T07:32:16.729Z,9.97
2023-04-10T07:33:16.677Z,9.87
2023-04-10T07:34:16.518Z,9.98
2023-04-10T07:35:16.570Z,9.95
2023-04-10T07:36:16.586Z,9.91
2023-04-10T07:37:16.499Z,9.80
2023-04-10T07:38:16.467Z,9.83
2023-04-10T07:39:16.486Z,9.86
2023-04-10T07:40:16.492Z,10.10
2023-04-10T07:41:16.466Z,10.13
2023-04-10T07:42:16.441Z,10.23
2023-04-10T07:43:16.432Z,10.07
2023-04-10T07:44:16.407Z,9.98
2023-04-10T07:45:16.459Z,10.09
2023-04-10T07:46:16.482Z,10.15
2023-04-10T07:47:16.405Z,10.13
2023-04-10T07:48:16.362Z,10.01
2023-04-10T07:49:16.376Z,9.83
2023-04-10T07:50:16.443Z,9.95
2023-04-10T07:51:16.345Z,10.07
2023-04-10T07:52:16.306Z,10.16
2023-04-10T07:53:16.305Z,10.16
2023-04-10T07:54:16.292Z,10.12
2023-04-10T07:55:16.315Z,10.05
2023-04-10T07:56:16.258Z,10.05
2023-04-10T07:57:16.280Z,10.42
2023-04-10T07:58:16.238Z,10.63
2023-04-10T07:59:16.250Z,10.82
2023-04-10T08:00:16.279Z,11.02
2023-04-10T08:01:16.227Z,10.67
2023-04-10T08:02:16.303Z,10.38
2023-04-10T08:03:16.437Z,10.67
2023-04-10T08:04:16.305Z,10.57
2023-04-10T08:05:16.272Z,10.87
2023-04-10T08:06:16.149Z,11.10
2023-04-10T08:07:16.137Z,11.22
2023-04-10T08:08:16.143Z,10.99
2023-04-10T08:09:16.113Z,10.86
2023-04-10T08:10:16.137Z,10.93
2023-04-10T08:11:16.088Z,10.99
2023-04-10T08:12:16.075Z,11.12
2023-04-10T08:13:16.092Z,11.50
2023-04-10T08:14:18.591Z,11.91
2023-04-10T08:15:16.102Z,12.00
2023-04-10T08:16:16.058Z,11.78
2023-04-10T08:17:16.028Z,11.66
2023-04-10T08:18:16.016Z,11.66
2023-04-10T08:19:16.018Z,11.81
2023-04-10T08:20:16.043Z,11.54
2023-04-10T08:21:15.979Z,11.66
2023-04-10T08:22:15.953Z,12.03
2023-04-10T08:23:20.423Z,12.36
2023-04-10T08:24:16.949Z,12.36
2023-04-10T08:25:15.970Z,12.31
2023-04-10T08:26:15.925Z,12.40
2023-04-10T08:27:15.921Z,12.67
2023-04-10T08:28:15.887Z,12.39
2023-04-10T08:29:15.893Z,12.32
2023-04-10T08:30:15.919Z,12.04
2023-04-10T08:31:15.889Z,12.02
2023-04-10T08:32:15.853Z,12.03
2023-04-10T08:33:15.950Z,12.29
2023-04-10T08:34:15.831Z,12.35
2023-04-10T08:35:15.827Z,12.50
2023-04-10T08:36:17.677Z,12.57
2023-04-10T08:37:15.795Z,12.47
2023-04-10T08:38:15.787Z,12.82
2023-04-10T08:39:15.781Z,12.93
2023-04-10T08:40:15.746Z,12.86
2023-04-10T08:41:15.785Z,12.21
2023-04-10T08:42:15.748Z,11.91
2023-04-10T08:43:15.724Z,11.83
2023-04-10T08:44:15.723Z,12.36
2023-04-10T08:45:15.696Z,12.67
2023-04-10T08:46:15.741Z,12.67
2023-04-10T08:47:15.696Z,13.57
2023-04-10T08:48:15.673Z,14.63
2023-04-10T08:49:15.670Z,14.62
2023-04-10T08:50:15.634Z,14.18
2023-04-10T08:51:20.096Z,13.97
2023-04-10T08:52:15.617Z,14.45
2023-04-10T08:53:15.610Z,13.90
2023-04-10T08:54:15.592Z,14.26
2023-04-10T08:55:15.584Z,15.49
2023-04-10T08:56:15.613Z,15.59
2023-04-10T08:57:15.554Z,16.00
2023-04-10T08:58:15.553Z,15.91
2023-04-10T08:59:15.560Z,15.46
2023-04-10T09:00:23.064Z,14.00
2023-04-10T09:01:16.676Z,13.42
2023-04-10T09:02:15.599Z,13.20
2023-04-10T09:03:15.588Z,13.50
2023-04-10T09:04:15.577Z,13.89
2023-04-10T09:05:15.466Z,13.44
2023-04-10T09:06:15.486Z,13.56
2023-04-10T09:07:15.434Z,14.00
2023-04-10T09:08:15.425Z,13.85
2023-04-10T09:09:15.428Z,14.32
2023-04-10T09:10:15.433Z,14.59
2023-04-10T09:11:15.464Z,14.81
2023-04-10T09:12:15.401Z,15.42
2023-04-10T09:13:15.373Z,15.25
2023-04-10T09:14:15.363Z,14.70
2023-04-10T09:15:15.382Z,15.47
2023-04-10T09:16:15.570Z,15.83
2023-04-10T09:17:15.458Z,16.23
2023-04-10T09:18:15.327Z,16.15
2023-04-10T09:19:15.311Z,15.82
2023-04-10T09:20:15.296Z,15.22
2023-04-10T09:21:15.334Z,15.10
2023-04-10T09:22:15.265Z,15.33
2023-04-10T09:23:15.252Z,15.94
2023-04-10T09:24:15.228Z,16.00
2023-04-10T09:25:15.231Z,16.43
2023-04-10T09:26:15.406Z,16.53
2023-04-10T09:27:15.254Z,15.83
2023-04-10T09:28:15.204Z,16.21
2023-04-10T09:29:15.314Z,16.04
2023-04-10T09:30:15.184Z,16.13
2023-04-10T09:31:15.298Z,16.09
2023-04-10T09:32:15.168Z,16.49
2023-04-10T09:33:15.179Z,16.61
2023-04-10T09:34:15.148Z,16.99
2023-04-10T09:35:15.199Z,18.15
2023-04-10T09:36:15.197Z,19.04
2023-04-10T09:37:15.115Z,19.08
2023-04-10T09:38:15.091Z,17.19
2023-04-10T09:39:15.092Z,15.21
2023-04-10T09:40:15.106Z,15.70
2023-04-10T09:41:15.102Z,16.69
2023-04-10T09:42:15.087Z,16.78
2023-04-10T09:43:15.042Z,16.90
2023-04-10T09:44:15.063Z,16.91
2023-04-10T09:45:15.043Z,16.66
2023-04-10T09:46:15.197Z,16.29
2023-04-10T09:47:15.036Z,16.64
2023-04-10T09:48:15.036Z,16.69
2023-04-10T09:49:14.987Z,16.01
2023-04-10T09:50:15.014Z,16.02
2023-04-10T09:51:15.041Z,16.72
2023-04-10T09:52:15.131Z,17.09
2023-04-10T09:53:14.937Z,16.66
2023-04-10T09:54:14.925Z,16.28
2023-04-10T09:55:14.907Z,16.43
2023-04-10T09:56:14.966Z,16.16
2023-04-10T09:57:14.913Z,16.65
2023-04-10T09:58:14.899Z,16.91
2023-04-10T09:59:14.880Z,16.81
2023-04-10T10:00:14.869Z,16.97
2023-04-10T10:01:14.944Z,16.87
2023-04-10T10:02:14.972Z,16.71
2023-04-10T10:03:15.001Z,16.81
2023-04-10T10:04:14.834Z,17.57
2023-04-10T10:05:14.848Z,18.23
2023-04-10T10:06:14.842Z,19.07
2023-04-10T10:07:14.786Z,18.98
2023-04-10T10:08:14.765Z,18.83
2023-04-10T10:09:14.816Z,19.19
2023-04-10T10:10:14.736Z,19.70
2023-04-10T10:11:14.786Z,19.89
2023-04-10T10:12:14.707Z,19.33
2023-04-10T10:13:14.792Z,18.99
2023-04-10T10:14:14.697Z,19.41
2023-04-10T10:15:14.690Z,20.13
2023-04-10T10:16:14.775Z,19.34
2023-04-10T10:17:14.666Z,18.98
2023-04-10T10:18:14.645Z,18.89
2023-04-10T10:19:14.809Z,18.01
2023-04-10T10:20:14.638Z,18.15
2023-04-10T10:21:14.716Z,18.90
2023-04-10T10:22:14.610Z,19.74
2023-04-10T10:23:14.669Z,19.62
2023-04-10T10:24:14.612Z,19.64
2023-04-10T10:25:14.606Z,18.81
2023-04-10T10:26:14.620Z,18.63
2023-04-10T10:27:14.540Z,18.55
2023-04-10T10:28:14.551Z,18.45
2023-04-10T10:29:14.523Z,18.29
2023-04-10T10:30:28.296Z,18.13
2023-04-10T10:31:15.662Z,17.45
2023-04-10T10:32:14.493Z,17.38
2023-04-10T10:33:14.514Z,18.28
2023-04-10T10:34:14.464Z,18.55
2023-04-10T10:35:14.465Z,19.19
2023-04-10T10:36:14.528Z,19.09
2023-04-10T10:37:14.458Z,19.07
2023-04-10T10:38:14.437Z,19.84
2023-04-10T10:39:14.417Z,20.25
2023-04-10T10:40:14.428Z,20.43
2023-04-10T10:41:14.383Z,21.22
2023-04-10T10:42:14.447Z,20.81
2023-04-10T10:43:14.367Z,20.62
2023-04-10T10:44:14.358Z,20.21
2023-04-10T10:45:14.334Z,20.06
2023-04-10T10:46:14.476Z,20.25
2023-04-10T10:47:14.366Z,18.47
2023-04-10T10:48:14.331Z,18.25
2023-04-10T10:49:14.318Z,18.73
2023-04-10T10:50:14.364Z,18.45
2023-04-10T10:51:14.297Z,17.95
2023-04-10T10:52:14.308Z,17.63
2023-04-10T10:53:14.269Z,18.26
2023-04-10T10:54:14.313Z,19.08
2023-04-10T10:55:14.224Z,18.89
2023-04-10T10:56:14.236Z,19.15
2023-04-10T10:57:14.263Z,18.83
2023-04-10T10:58:14.208Z,19.81
2023-04-10T10:59:14.193Z,20.82
2023-04-10T11:00:14.203Z,21.89
2023-04-10T11:01:14.259Z,22.68
2023-04-10T11:02:14.385Z,21.82
2023-04-10T11:03:14.328Z,21.35
2023-04-10T11:04:14.209Z,21.66
2023-04-10T11:05:14.154Z,20.60
2023-04-10T11:06:14.119Z,19.81
2023-04-10T11:07:14.301Z,19.99
2023-04-10T11:08:14.119Z,19.91
2023-04-10T11:09:14.099Z,19.85
2023-04-10T11:10:14.115Z,20.82
2023-04-10T11:11:14.097Z,21.43
2023-04-10T11:12:14.090Z,21.93
2023-04-10T11:13:14.045Z,21.60
2023-04-10T11:14:14.041Z,20.52
2023-04-10T11:15:14.124Z,19.27
2023-04-10T11:16:14.188Z,18.86
2023-04-10T11:17:14.037Z,19.45
2023-04-10T11:18:14.021Z,19.56
2023-04-10T11:19:16.281Z,20.21
2023-04-10T11:20:13.974Z,19.92
2023-04-10T11:21:13.952Z,20.90
2023-04-10T11:22:13.961Z,21.43
2023-04-10T11:23:13.925Z,22.07
2023-04-10T11:24:13.914Z,22.22
2023-04-10T11:25:13.905Z,22.70
2023-04-10T11:26:13.883Z,23.27
2023-04-10T11:27:13.912Z,22.70
2023-04-10T11:28:13.869Z,22.96
2023-04-10T11:29:13.884Z,22.94
2023-04-10T11:30:13.911Z,21.20
2023-04-10T11:31:13.856Z,21.02
2023-04-10T11:32:14.036Z,20.78
2023-04-10T11:33:13.806Z,21.09
2023-04-10T11:34:13.821Z,21.50
2023-04-10T11:35:13.778Z,20.96
2023-04-10T11:36:13.762Z,21.24
2023-04-10T11:37:13.838Z,21.61
2023-04-10T11:38:13.750Z,22.44
2023-04-10T11:39:13.719Z,22.33
2023-04-10T11:40:13.712Z,22.45
2023-04-10T11:41:13.714Z,22.00
2023-04-10T11:42:13.756Z,22.36
2023-04-10T11:43:13.681Z,22.33
2023-04-10T11:44:13.682Z,21.51
2023-04-10T11:45:13.687Z,20.82
2023-04-10T11:46:13.690Z,20.87
2023-04-10T11:47:13.692Z,20.92
2023-04-10T11:48:13.651Z,21.51
2023-04-10T11:49:13.618Z,21.89
2023-04-10T11:50:13.760Z,21.77
2023-04-10T11:51:13.604Z,21.75
2023-04-10T11:52:13.637Z,22.50
2023-04-10T11:53:13.577Z,20.82
2023-04-10T11:54:13.633Z,20.52
2023-04-10T11:55:13.549Z,19.74
2023-04-10T11:56:13.542Z,19.86
2023-04-10T11:57:13.558Z,20.85
2023-04-10T11:58:13.505Z,20.72
2023-04-10T11:59:13.540Z,20.63
2023-04-10T12:00:13.603Z,20.48
2023-04-10T12:01:13.497Z,20.87
2023-04-10T12:02:13.573Z,21.00
2023-04-10T12:03:13.609Z,21.24
2023-04-10T12:04:13.550Z,21.46
2023-04-10T12:05:13.565Z,21.40
2023-04-10T12:06:13.427Z,21.62
2023-04-10T12:07:13.457Z,21.55
2023-04-10T12:08:13.432Z,21.70
2023-04-10T12:09:14.436Z,21.55
2023-04-10T12:10:13.519Z,21.11
2023-04-10T12:11:13.387Z,21.46
2023-04-10T12:12:13.405Z,21.17
2023-04-10T12:13:13.368Z,20.82
2023-04-10T12:14:13.378Z,20.60
2023-04-10T12:15:13.345Z,19.44
2023-04-10T12:16:13.575Z,19.24
2023-04-10T12:17:13.378Z,18.93
2023-04-10T12:18:13.296Z,19.07
2023-04-10T12:19:13.300Z,19.47
2023-04-10T12:20:13.279Z,19.64
2023-04-10T12:21:13.260Z,19.89
2023-04-10T12:22:14.084Z,20.28
2023-04-10T12:23:13.249Z,20.31
2023-04-10T12:24:13.284Z,20.74
2023-04-10T12:25:13.212Z,20.72
2023-04-10T12:26:13.215Z,20.36
2023-04-10T12:27:13.236Z,20.59
2023-04-10T12:28:13.207Z,20.11
2023-04-10T12:29:13.170Z,20.03
2023-04-10T12:30:13.178Z,20.34
2023-04-10T12:31:13.192Z,19.95
2023-04-10T12:32:13.203Z,19.69
2023-04-10T12:33:13.132Z,20.32
2023-04-10T12:34:13.129Z,20.92
2023-04-10T12:35:13.133Z,21.03
2023-04-10T12:36:13.105Z,20.99
2023-04-10T12:37:13.132Z,20.00
2023-04-10T12:38:13.119Z,19.74
2023-04-10T12:39:13.136Z,20.56
2023-04-10T12:40:13.068Z,20.92
2023-04-10T12:41:13.086Z,20.36
2023-04-10T12:42:13.154Z,20.72
2023-04-10T12:43:13.017Z,20.63
2023-04-10T12:44:13.074Z,20.95
2023-04-10T12:45:13.007Z,21.20
2023-04-10T12:46:13.016Z,21.60
2023-04-10T12:47:13.048Z,21.51
2023-04-10T12:48:13.027Z,20.92
2023-04-10T12:49:12.985Z,20.90
2023-04-10T12:50:12.964Z,21.61
2023-04-10T12:51:12.978Z,21.60
2023-04-10T12:52:13.033Z,21.91
2023-04-10T12:53:12.922Z,21.88
2023-04-10T12:54:12.912Z,21.64
2023-04-10T12:55:13.013Z,21.33
2023-04-10T12:56:12.900Z,20.63
2023-04-10T12:57:12.892Z,19.92
2023-04-10T12:58:12.852Z,19.73
2023-04-10T12:59:12.840Z,19.71
2023-04-10T13:00:12.913Z,19.99
2023-04-10T13:01:12.836Z,20.75
2023-04-10T13:02:13.027Z,20.97
2023-04-10T13:03:12.975Z,20.70
2023-04-10T13:04:12.908Z,20.37